sensor_id;sensor_type;location;lat;lon;timestamp;temperature;humidity
23769;DHT22;12064;50.890;5.424;2023-08-20T00:08:34;23.90;99.90
23769;DHT22;12064;50.890;5.424;2023-08-20T00:17:25;23.90;99.90
23769;DHT22;12064;50.890;5.424;2023-08-20T00:26:17;23.90;99.90
23769;DHT22;12064;50.890;5.424;2023-08-20T00:35:08;23.90;99.90
23769;DHT22;12064;50.890;5.424;2023-08-20T00:43:59;23.90;99.90
23769;DHT22;12064;50.890;5.424;2023-08-20T00:52:50;23.80;99.90
23769;DHT22;12064;50.890;5.424;2023-08-20T01:01:41;23.80;99.90
23769;DHT22;12064;50.890;5.424;2023-08-20T01:10:56;23.80;99.90
23769;DHT22;12064;50.890;5.424;2023-08-20T01:19:48;23.80;99.90
23769;DHT22;12064;50.890;5.424;2023-08-20T01:28:39;23.80;99.90
23769;DHT22;12064;50.890;5.424;2023-08-20T01:37:30;23.80;99.90
23769;DHT22;12064;50.890;5.424;2023-08-20T01:46:21;23.70;99.90
23769;DHT22;12064;50.890;5.424;2023-08-20T01:55:11;23.70;99.90
23769;DHT22;12064;50.890;5.424;2023-08-20T02:04:02;23.70;99.90
23769;DHT22;12064;50.890;5.424;2023-08-20T02:12:53;23.70;99.90
23769;DHT22;12064;50.890;5.424;2023-08-20T02:21:44;23.70;99.90
23769;DHT22;12064;50.890;5.424;2023-08-20T02:30:42;23.60;99.90
23769;DHT22;12064;50.890;5.424;2023-08-20T02:39:33;23.70;99.90
23769;DHT22;12064;50.890;5.424;2023-08-20T02:48:24;23.60;99.90
23769;DHT22;12064;50.890;5.424;2023-08-20T02:57:18;23.60;99.90
23769;DHT22;12064;50.890;5.424;2023-08-20T03:06:08;23.60;99.90
23769;DHT22;12064;50.890;5.424;2023-08-20T03:14:59;23.60;99.90
23769;DHT22;12064;50.890;5.424;2023-08-20T03:23:50;23.40;99.90
23769;DHT22;12064;50.890;5.424;2023-08-20T03:32:41;23.40;99.90
23769;DHT22;12064;50.890;5.424;2023-08-20T03:41:31;23.30;99.90
23769;DHT22;12064;50.890;5.424;2023-08-20T03:50:22;23.20;99.90
23769;DHT22;12064;50.890;5.424;2023-08-20T03:59:13;23.20;99.90
23769;DHT22;12064;50.890;5.424;2023-08-20T04:08:05;23.00;99.90
23769;DHT22;12064;50.890;5.424;2023-08-20T04:16:56;23.00;99.90
23769;DHT22;12064;50.890;5.424;2023-08-20T04:25:47;23.00;99.90
23769;DHT22;12064;50.890;5.424;2023-08-20T04:34:37;23.00;99.90
23769;DHT22;12064;50.890;5.424;2023-08-20T04:43:28;23.00;99.90
23769;DHT22;12064;50.890;5.424;2023-08-20T04:52:19;23.00;99.90
23769;DHT22;12064;50.890;5.424;2023-08-20T05:01:10;22.90;99.90
23769;DHT22;12064;50.890;5.424;2023-08-20T05:10:01;22.80;99.90
23769;DHT22;12064;50.890;5.424;2023-08-20T05:18:52;23.00;99.90
23769;DHT22;12064;50.890;5.424;2023-08-20T05:27:43;23.10;99.90
23769;DHT22;12064;50.890;5.424;2023-08-20T05:36:34;22.90;99.90
23769;DHT22;12064;50.890;5.424;2023-08-20T05:45:24;22.90;99.90
23769;DHT22;12064;50.890;5.424;2023-08-20T05:54:15;22.90;99.90
23769;DHT22;12064;50.890;5.424;2023-08-20T06:03:06;23.00;99.90
23769;DHT22;12064;50.890;5.424;2023-08-20T06:11:57;23.00;99.90
23769;DHT22;12064;50.890;5.424;2023-08-20T06:20:48;22.90;99.90
23769;DHT22;12064;50.890;5.424;2023-08-20T06:29:39;22.90;99.90
23769;DHT22;12064;50.890;5.424;2023-08-20T06:38:32;22.90;99.90
23769;DHT22;12064;50.890;5.424;2023-08-20T06:47:23;22.80;99.90
23769;DHT22;12064;50.890;5.424;2023-08-20T06:56:14;22.80;99.90
23769;DHT22;12064;50.890;5.424;2023-08-20T07:05:04;22.80;99.90
23769;DHT22;12064;50.890;5.424;2023-08-20T07:13:55;22.90;99.90
23769;DHT22;12064;50.890;5.424;2023-08-20T07:22:46;23.00;99.90
23769;DHT22;12064;50.890;5.424;2023-08-20T07:31:36;23.00;99.90
23769;DHT22;12064;50.890;5.424;2023-08-20T07:40:27;23.10;99.90
23769;DHT22;12064;50.890;5.424;2023-08-20T07:49:18;23.20;99.90
23769;DHT22;12064;50.890;5.424;2023-08-20T07:58:08;23.40;99.90
23769;DHT22;12064;50.890;5.424;2023-08-20T08:06:59;23.50;99.90
23769;DHT22;12064;50.890;5.424;2023-08-20T08:15:50;23.50;99.90
23769;DHT22;12064;50.890;5.424;2023-08-20T08:24:41;23.60;99.90
23769;DHT22;12064;50.890;5.424;2023-08-20T08:33:33;23.70;99.90
23769;DHT22;12064;50.890;5.424;2023-08-20T08:42:24;23.70;99.90
23769;DHT22;12064;50.890;5.424;2023-08-20T08:51:15;23.80;99.90
23769;DHT22;12064;50.890;5.424;2023-08-20T09:00:07;23.90;99.90
23769;DHT22;12064;50.890;5.424;2023-08-20T09:09:04;23.90;99.90
23769;DHT22;12064;50.890;5.424;2023-08-20T09:17:57;24.00;99.90
23769;DHT22;12064;50.890;5.424;2023-08-20T09:26:57;24.10;99.90
23769;DHT22;12064;50.890;5.424;2023-08-20T09:35:49;24.10;99.90
23769;DHT22;12064;50.890;5.424;2023-08-20T09:44:42;24.20;99.90
23769;DHT22;12064;50.890;5.424;2023-08-20T09:53:51;24.30;99.90
23769;DHT22;12064;50.890;5.424;2023-08-20T10:02:44;24.40;99.90
23769;DHT22;12064;50.890;5.424;2023-08-20T10:11:34;24.40;99.90
23769;DHT22;12064;50.890;5.424;2023-08-20T10:20:29;24.50;99.90
23769;DHT22;12064;50.890;5.424;2023-08-20T10:29:38;24.60;99.90
23769;DHT22;12064;50.890;5.424;2023-08-20T10:38:35;24.70;99.90
23769;DHT22;12064;50.890;5.424;2023-08-20T10:47:42;24.80;99.90
23769;DHT22;12064;50.890;5.424;2023-08-20T10:56:47;24.80;99.90
23769;DHT22;12064;50.890;5.424;2023-08-20T11:05:38;24.90;99.90
23769;DHT22;12064;50.890;5.424;2023-08-20T11:14:29;25.00;99.90
23769;DHT22;12064;50.890;5.424;2023-08-20T11:23:21;25.10;99.90
23769;DHT22;12064;50.890;5.424;2023-08-20T11:32:12;25.10;99.90
23769;DHT22;12064;50.890;5.424;2023-08-20T11:41:03;25.20;99.90
23769;DHT22;12064;50.890;5.424;2023-08-20T11:50:04;25.30;99.90
23769;DHT22;12064;50.890;5.424;2023-08-20T11:58:59;25.30;99.90
23769;DHT22;12064;50.890;5.424;2023-08-20T12:07:58;25.40;99.90
23769;DHT22;12064;50.890;5.424;2023-08-20T12:16:49;25.40;99.90
23769;DHT22;12064;50.890;5.424;2023-08-20T12:25:43;25.50;99.90
23769;DHT22;12064;50.890;5.424;2023-08-20T12:34:34;25.60;99.90
23769;DHT22;12064;50.890;5.424;2023-08-20T12:43:25;25.60;99.90
23769;DHT22;12064;50.890;5.424;2023-08-20T12:52:15;25.70;99.90
23769;DHT22;12064;50.890;5.424;2023-08-20T13:01:06;25.80;99.90
23769;DHT22;12064;50.890;5.424;2023-08-20T13:09:57;25.80;99.90
23769;DHT22;12064;50.890;5.424;2023-08-20T13:18:48;25.90;99.90
23769;DHT22;12064;50.890;5.424;2023-08-20T13:27:39;25.90;99.90
23769;DHT22;12064;50.890;5.424;2023-08-20T13:36:30;26.00;99.90
23769;DHT22;12064;50.890;5.424;2023-08-20T13:45:21;26.10;99.90
23769;DHT22;12064;50.890;5.424;2023-08-20T13:54:11;26.10;99.90
23769;DHT22;12064;50.890;5.424;2023-08-20T14:03:03;26.20;99.90
23769;DHT22;12064;50.890;5.424;2023-08-20T14:11:54;26.30;99.90
23769;DHT22;12064;50.890;5.424;2023-08-20T14:20:44;26.30;99.90
23769;DHT22;12064;50.890;5.424;2023-08-20T14:29:35;26.30;99.90
23769;DHT22;12064;50.890;5.424;2023-08-20T14:38:28;26.40;99.90
23769;DHT22;12064;50.890;5.424;2023-08-20T14:47:19;26.40;99.90
23769;DHT22;12064;50.890;5.424;2023-08-20T14:56:10;26.40;99.90
23769;DHT22;12064;50.890;5.424;2023-08-20T15:05:01;26.50;99.90
23769;DHT22;12064;50.890;5.424;2023-08-20T15:13:51;26.50;99.90
23769;DHT22;12064;50.890;5.424;2023-08-20T15:22:42;26.50;99.90
23769;DHT22;12064;50.890;5.424;2023-08-20T15:31:33;26.60;99.90
23769;DHT22;12064;50.890;5.424;2023-08-20T15:40:24;26.60;99.90
23769;DHT22;12064;50.890;5.424;2023-08-20T15:49:15;26.70;99.90
23769;DHT22;12064;50.890;5.424;2023-08-20T15:58:05;26.70;99.90
23769;DHT22;12064;50.890;5.424;2023-08-20T16:06:56;26.70;99.90
23769;DHT22;12064;50.890;5.424;2023-08-20T16:15:47;26.70;99.90
23769;DHT22;12064;50.890;5.424;2023-08-20T16:24:38;26.70;99.90
23769;DHT22;12064;50.890;5.424;2023-08-20T16:33:29;26.80;99.90
23769;DHT22;12064;50.890;5.424;2023-08-20T16:42:19;26.80;99.90
23769;DHT22;12064;50.890;5.424;2023-08-20T16:51:10;26.80;99.90
23769;DHT22;12064;50.890;5.424;2023-08-20T17:00:01;26.70;99.90
23769;DHT22;12064;50.890;5.424;2023-08-20T17:08:51;26.80;99.90
23769;DHT22;12064;50.890;5.424;2023-08-20T17:17:42;26.80;99.90
23769;DHT22;12064;50.890;5.424;2023-08-20T17:26:33;26.80;99.90
23769;DHT22;12064;50.890;5.424;2023-08-20T17:35:23;26.80;99.90
23769;DHT22;12064;50.890;5.424;2023-08-20T17:44:15;26.80;99.90
23769;DHT22;12064;50.890;5.424;2023-08-20T17:53:06;26.90;99.90
23769;DHT22;12064;50.890;5.424;2023-08-20T18:01:56;26.80;99.90
23769;DHT22;12064;50.890;5.424;2023-08-20T18:10:47;26.90;99.90
23769;DHT22;12064;50.890;5.424;2023-08-20T18:19:38;26.90;99.90
23769;DHT22;12064;50.890;5.424;2023-08-20T18:28:29;26.80;99.90
23769;DHT22;12064;50.890;5.424;2023-08-20T18:37:20;26.80;99.90
23769;DHT22;12064;50.890;5.424;2023-08-20T18:46:11;26.90;99.90
23769;DHT22;12064;50.890;5.424;2023-08-20T18:55:01;26.90;99.90
23769;DHT22;12064;50.890;5.424;2023-08-20T19:03:55;26.80;99.90
23769;DHT22;12064;50.890;5.424;2023-08-20T19:12:46;26.80;99.90
23769;DHT22;12064;50.890;5.424;2023-08-20T19:21:37;26.80;99.90
23769;DHT22;12064;50.890;5.424;2023-08-20T19:30:27;26.80;99.90
23769;DHT22;12064;50.890;5.424;2023-08-20T19:39:22;26.70;99.90
23769;DHT22;12064;50.890;5.424;2023-08-20T19:48:12;26.80;99.90
23769;DHT22;12064;50.890;5.424;2023-08-20T19:57:03;26.70;99.90
23769;DHT22;12064;50.890;5.424;2023-08-20T20:05:54;26.80;99.90
23769;DHT22;12064;50.890;5.424;2023-08-20T20:14:44;26.80;99.90
23769;DHT22;12064;50.890;5.424;2023-08-20T20:23:36;26.70;99.90
23769;DHT22;12064;50.890;5.424;2023-08-20T20:32:27;26.70;99.90
23769;DHT22;12064;50.890;5.424;2023-08-20T20:41:17;26.70;99.90
23769;DHT22;12064;50.890;5.424;2023-08-20T20:50:08;26.60;99.90
23769;DHT22;12064;50.890;5.424;2023-08-20T20:58:59;26.40;99.90
23769;DHT22;12064;50.890;5.424;2023-08-20T21:07:50;26.30;99.90
23769;DHT22;12064;50.890;5.424;2023-08-20T21:16:42;26.20;99.20
23769;DHT22;12064;50.890;5.424;2023-08-20T21:25:34;26.10;98.80
23769;DHT22;12064;50.890;5.424;2023-08-20T21:34:24;26.00;98.30
23769;DHT22;12064;50.890;5.424;2023-08-20T21:43:15;25.90;98.10
23769;DHT22;12064;50.890;5.424;2023-08-20T21:52:06;25.80;97.70
23769;DHT22;12064;50.890;5.424;2023-08-20T22:00:57;25.90;97.40
23769;DHT22;12064;50.890;5.424;2023-08-20T22:09:52;25.80;97.30
23769;DHT22;12064;50.890;5.424;2023-08-20T22:18:43;25.70;97.30
23769;DHT22;12064;50.890;5.424;2023-08-20T22:27:34;25.60;97.30
23769;DHT22;12064;50.890;5.424;2023-08-20T22:36:25;25.60;97.10
23769;DHT22;12064;50.890;5.424;2023-08-20T22:45:15;25.60;97.10
23769;DHT22;12064;50.890;5.424;2023-08-20T22:54:09;25.50;96.90
23769;DHT22;12064;50.890;5.424;2023-08-20T23:03:00;25.50;96.90
23769;DHT22;12064;50.890;5.424;2023-08-20T23:11:50;25.40;97.10
23769;DHT22;12064;50.890;5.424;2023-08-20T23:20:42;25.40;96.90
23769;DHT22;12064;50.890;5.424;2023-08-20T23:29:33;25.30;96.70
23769;DHT22;12064;50.890;5.424;2023-08-20T23:38:23;25.30;96.60
23769;DHT22;12064;50.890;5.424;2023-08-20T23:47:14;25.30;96.40
23769;DHT22;12064;50.890;5.424;2023-08-20T23:56:08;25.20;96.40
